Dyckesville, Wisconsin
Current Conditions -  °F | °C
As of 9:53 AM on Monday 24 Nov 2014 (Local Time) from KGRB Reporting Station
Overcast Overcast  
Wind Chill: 38°   Ceiling: 1700
Heat Index: 43°   Visibility: 10mi
Dew Point: 41°   Wind: 9mph
Humidity: 93%   Direction: 310°NW
Pressure: 29.06"   Gusts: NA
Location:  44.5424°N, 87.7165°W
Report Text: KGRB 241553Z 31008KT 10SM FEW010 OVC017 06/05 A2906 RMK AO2 SLP843 T00610050
Loading
Personal Weather Stations






























Interactive Weather Map New forecast layout! Learn more

10-Day Weather Forecast

Advertisements
Track Severe Weather on mobile